Skip Navigation Links Skip Navigation Links

Current Weather

Allen Aaf, Delta Junction Ft Greely, Alaska

For information only: do not use for flight planning or navigation.
Latest weather
Observation time Monday, October 18, 2021 11:53 PM AKDT
Local time Tuesday, October 19, 2021 12:09 AM AKDT
Flight conditions Visual Meteorological Conditions
Winds
Wind direction East-Southeast (110°)
Wind speed 22 mph
Visibility 10 mi.
Sky condition
Ceiling unlimited
Sky clear
Temperature 25°F
Dewpoint 15°F
Altimeter 29.63 in.Hg
Derived measurements
Relative humidity 66%
Wind chill 10°F
Density altitude -663 ft.
Sea-level pressure 29.71 in.Hg
Remarks
Fully automated report.
Automated weather observing station with precipitation discriminator.
Lightning detection system not operating.
METAR PABI 190753Z AUTO 11019KT 10SM CLR M04/M09 A2963 RMK AO2 SLP060 T10391094 TSNO

Settings

Location code

InnerDrive.Weather 4.0.6770.0 Release CLR 4.0.30319.42000
Copyright ©2018 Inner Drive Technology. All rights reserved. Portions Copyright ©1986-2018 David Braverman.

Find weather

Site navigation


Skip Navigation Links

Place info

Page info

PayPal - The safer, easier way to pay online!

Return home.

Copyright ©2021 Inner Drive Technology. Purveyors of fine, hand-crafted computer software. Page printed 2021-10-19T08:09:10 UTC.